Horine, Missouri
Current Conditions -  °F | °C
As of 5:53 PM on Friday 19 Dec 2014 (Local Time) from KCPS Reporting Station
Overcast Overcast  
Wind Chill: 30°   Ceiling: 3200
Heat Index: 36°   Visibility: 8mi
Dew Point: 29°   Wind: 7mph
Humidity: 76%   Direction: 100°E
Pressure: 30.28"   Gusts: NA
Location:  38.2842°N, 90.4297°W
Report Text: KCPS 192353Z 10006KT 8SM BKN032 OVC060 02/M02 A3028 RMK AO2 SLP256 T00221017 10033 20022 50002
Loading
Personal Weather Stations






























Interactive Weather Map New forecast layout! Learn more

10-Day Weather Forecast

Advertisements
Track Severe Weather on mobile